Time;durP1;ratioP1;P1;durP2;ratioP2;P2;SDS_P1;SDS_P2;PMS_P1;PMS_P2;Temp;Humidity;BMP_temperature;BMP_pressure;BME280_temperature;BME280_humidity;BME280_pressure;Samples;Min_cycle;Max_cycle;Signal;HPM_P1;HPM_P2
2022/03/10 00:00:43;;;;;;;15.40;10.02;;;5.80;61.30;;;;;;6124450;23;92358;-68
2022/03/10 00:03:10;;;;;;;15.63;10.50;;;5.70;61.30;;;;;;6125415;22;92982;-68
2022/03/10 00:05:38;;;;;;;14.23;10.15;;;5.70;61.60;;;;;;6125384;23;92432;-68
2022/03/10 00:08:05;;;;;;;14.70;9.75;;;5.70;61.70;;;;;;6124755;22;97621;-68
2022/03/10 00:10:32;;;;;;;15.75;9.93;;;5.70;62.10;;;;;;6124249;22;95682;-68
2022/03/10 00:13:03;;;;;;;14.45;10.57;;;5.70;62.10;;;;;;6125390;22;95141;-68
2022/03/10 00:15:30;;;;;;;13.40;9.77;;;5.70;61.90;;;;;;6099086;23;92399;-68
2022/03/10 00:18:02;;;;;;;12.90;9.25;;;5.60;61.70;;;;;;6125801;22;92447;-68
2022/03/10 00:20:29;;;;;;;15.57;10.32;;;5.60;61.80;;;;;;6125894;22;92894;-68
2022/03/10 00:22:56;;;;;;;14.63;10.25;;;5.50;61.90;;;;;;6124829;22;92533;-68
2022/03/10 00:25:24;;;;;;;16.85;9.95;;;5.50;62.00;;;;;;6125397;22;92374;-68
2022/03/10 00:27:51;;;;;;;16.60;10.68;;;5.50;62.20;;;;;;6124016;23;91741;-68
2022/03/10 00:30:18;;;;;;;16.25;10.13;;;5.40;62.20;;;;;;6124211;22;108235;-68
2022/03/10 00:32:49;;;;;;;14.40;9.88;;;5.30;62.40;;;;;;6123099;23;95953;-68
2022/03/10 00:35:18;;;;;;;13.85;9.63;;;5.30;62.50;;;;;;6097572;23;95345;-69
2022/03/10 00:37:50;;;;;;;16.58;10.60;;;5.20;62.60;;;;;;6126017;22;92328;-68
2022/03/10 00:40:18;;;;;;;16.35;10.40;;;5.20;62.70;;;;;;6122948;23;95899;-68
2022/03/10 00:42:45;;;;;;;16.75;11.05;;;5.10;62.90;;;;;;6098702;23;94069;-67
2022/03/10 00:45:14;;;;;;;14.32;10.20;;;5.10;63.30;;;;;;6123361;23;92369;-68
2022/03/10 00:47:41;;;;;;;17.95;10.18;;;5.00;63.40;;;;;;6125201;22;92396;-68
2022/03/10 00:50:09;;;;;;;13.60;10.45;;;5.00;63.50;;;;;;6124030;22;109188;-68
2022/03/10 00:52:40;;;;;;;12.63;9.75;;;4.90;63.60;;;;;;6124019;23;93020;-68
2022/03/10 00:55:08;;;;;;;15.75;10.48;;;4.90;63.80;;;;;;6099095;23;92451;-68
2022/03/10 00:57:36;;;;;;;20.42;12.10;;;4.80;63.90;;;;;;6123689;23;92448;-68
2022/03/10 01:00:05;;;;;;;14.13;9.60;;;4.80;64.00;;;;;;6121334;23;98223;-68
2022/03/10 01:02:34;;;;;;;15.25;10.57;;;4.80;64.40;;;;;;6125466;22;95268;-68
2022/03/10 01:05:02;;;;;;;16.85;10.98;;;4.80;64.40;;;;;;6123429;23;92349;-68
2022/03/10 01:07:29;;;;;;;16.73;10.02;;;4.70;64.50;;;;;;6123315;23;92463;-68
2022/03/10 01:09:56;;;;;;;14.43;10.70;;;4.70;64.50;;;;;;6123289;23;93179;-68
2022/03/10 01:12:23;;;;;;;18.88;10.68;;;4.70;64.60;;;;;;6122683;23;95466;-68
2022/03/10 01:14:50;;;;;;;16.55;11.13;;;4.70;64.90;;;;;;6123665;22;92519;-73
2022/03/10 01:17:17;;;;;;;16.50;10.68;;;4.60;64.50;;;;;;6124715;22;104359;-68
2022/03/10 01:19:44;;;;;;;17.98;11.20;;;4.60;64.80;;;;;;6124962;23;93216;-68
2022/03/10 01:22:11;;;;;;;19.73;11.50;;;4.60;65.10;;;;;;6124580;22;93071;-68
2022/03/10 01:24:39;;;;;;;15.73;11.52;;;4.60;65.30;;;;;;6121820;23;94827;-68
2022/03/10 01:27:06;;;;;;;15.65;10.43;;;4.60;65.00;;;;;;6122918;23;92477;-68
2022/03/10 01:29:33;;;;;;;16.40;10.55;;;4.50;65.30;;;;;;6098404;23;95723;-68
2022/03/10 01:32:00;;;;;;;18.95;10.10;;;4.50;65.20;;;;;;6123251;23;92999;-68
2022/03/10 01:34:27;;;;;;;19.05;10.57;;;4.50;66.00;;;;;;6124954;22;92389;-67
2022/03/10 01:36:54;;;;;;;19.00;11.00;;;4.50;65.30;;;;;;6123356;23;92758;-68
2022/03/10 01:39:21;;;;;;;17.27;10.65;;;4.50;65.70;;;;;;6123619;22;106248;-68
2022/03/10 01:41:48;;;;;;;16.40;10.65;;;4.50;65.20;;;;;;6123204;23;95491;-68
2022/03/10 01:44:16;;;;;;;15.15;10.13;;;4.50;65.20;;;;;;6124685;22;92339;-68
2022/03/10 01:46:43;;;;;;;18.27;10.13;;;4.40;65.70;;;;;;6125018;22;92428;-68
2022/03/10 01:49:10;;;;;;;18.70;11.27;;;4.50;65.20;;;;;;6122980;22;95586;-68
2022/03/10 01:51:37;;;;;;;18.38;10.60;;;4.50;65.00;;;;;;6124639;23;95336;-68
2022/03/10 01:54:04;;;;;;;16.65;9.95;;;4.40;65.30;;;;;;6124573;22;92414;-68
2022/03/10 01:56:32;;;;;;;17.55;11.40;;;4.40;65.60;;;;;;6125657;22;92406;-68
2022/03/10 01:59:02;;;;;;;13.45;9.80;;;4.40;65.30;;;;;;6124777;22;92429;-68
2022/03/10 02:01:31;;;;;;;16.85;10.70;;;4.40;65.30;;;;;;6123111;23;96163;-68
2022/03/10 02:03:59;;;;;;;14.45;10.55;;;4.40;65.30;;;;;;6098440;23;92431;-68
2022/03/10 02:06:26;;;;;;;16.52;10.60;;;4.40;65.30;;;;;;6098590;23;91714;-70
2022/03/10 02:11:39;;;;;;;16.95;11.00;;;4.40;65.00;;;;;;6122585;23;92711;-70
2022/03/10 02:19:37;;;;;;;15.45;10.93;;;4.40;65.30;;;;;;6124761;22;93194;-70
2022/03/10 02:22:08;;;;;;;15.65;10.38;;;4.30;65.00;;;;;;6124658;22;92919;-70
2022/03/10 02:24:37;;;;;;;14.63;10.38;;;4.40;64.80;;;;;;6123437;23;92767;-70
2022/03/10 02:27:20;;;;;;;16.08;10.38;;;4.30;65.20;;;;;;6124751;22;92387;-70
2022/03/10 02:29:49;;;;;;;17.60;10.50;;;4.40;64.80;;;;;;6123136;23;93268;-70
2022/03/10 02:32:18;;;;;;;13.05;10.32;;;4.30;64.50;;;;;;6122791;23;95387;-70
2022/03/10 02:34:45;;;;;;;14.45;9.45;;;4.30;64.80;;;;;;6123238;23;92458;-70
2022/03/10 02:37:13;;;;;;;17.92;10.90;;;4.30;64.60;;;;;;6125288;22;93046;-70
2022/03/10 02:39:41;;;;;;;18.52;10.88;;;4.30;64.60;;;;;;6096591;23;98110;-70
2022/03/10 02:42:09;;;;;;;14.60;10.13;;;4.30;64.80;;;;;;6124451;22;95448;-70
2022/03/10 02:44:43;;;;;;;17.05;10.30;;;4.30;64.70;;;;;;6124651;23;92410;-70
2022/03/10 02:47:11;;;;;;;14.02;10.10;;;4.30;64.50;;;;;;6123248;23;92912;-70
2022/03/10 02:49:39;;;;;;;13.25;9.63;;;4.20;64.30;;;;;;6123136;23;93230;-75
2022/03/10 02:52:07;;;;;;;15.07;11.00;;;4.20;64.60;;;;;;6122891;23;94032;-75
2022/03/10 02:54:42;;;;;;;17.55;10.98;;;4.20;64.40;;;;;;6123605;23;92814;-75
2022/03/10 02:57:10;;;;;;;13.02;9.50;;;4.20;64.20;;;;;;6124033;23;91775;-75
2022/03/10 02:59:37;;;;;;;14.45;10.38;;;4.20;64.70;;;;;;6099595;23;93638;-75
2022/03/10 03:02:05;;;;;;;17.13;10.75;;;4.20;64.30;;;;;;6123338;23;93007;-75
2022/03/10 03:04:32;;;;;;;14.73;10.05;;;4.20;64.40;;;;;;6121706;23;94750;-75
2022/03/10 03:06:59;;;;;;;15.90;10.75;;;4.20;64.10;;;;;;6123462;23;92572;-75
2022/03/10 03:09:26;;;;;;;19.25;11.43;;;4.20;64.10;;;;;;6122165;23;106671;-75
2022/03/10 03:11:54;;;;;;;15.40;10.57;;;4.10;64.20;;;;;;6124837;22;92883;-75
2022/03/10 03:14:23;;;;;;;15.75;10.15;;;4.10;64.30;;;;;;6098144;23;92481;-75
2022/03/10 03:16:56;;;;;;;15.13;10.90;;;4.10;64.50;;;;;;6122813;23;92533;-75
2022/03/10 03:19:24;;;;;;;16.27;10.15;;;4.00;64.70;;;;;;6098025;23;95933;-75
2022/03/10 03:21:51;;;;;;;19.00;11.25;;;3.90;65.00;;;;;;6124950;22;92922;-75
2022/03/10 03:24:18;;;;;;;12.13;10.18;;;3.90;65.40;;;;;;6122693;23;92403;-75
2022/03/10 03:26:47;;;;;;;14.68;10.05;;;3.80;65.40;;;;;;6124712;23;92425;-75
2022/03/10 03:29:14;;;;;;;15.98;11.20;;;3.70;65.60;;;;;;6121301;23;98124;-75
2022/03/10 03:31:41;;;;;;;18.05;10.57;;;3.70;66.10;;;;;;6124243;23;96012;-75
2022/03/10 03:34:11;;;;;;;15.45;10.70;;;3.70;66.10;;;;;;6122795;23;96144;-75
2022/03/10 03:36:39;;;;;;;15.82;10.18;;;3.70;66.00;;;;;;6124205;22;92274;-70
2022/03/10 03:39:07;;;;;;;16.55;9.65;;;3.60;66.00;;;;;;6122670;23;93403;-70
2022/03/10 03:41:35;;;;;;;16.95;10.20;;;3.60;66.60;;;;;;6124413;22;93043;-70
2022/03/10 03:44:03;;;;;;;15.52;8.60;;;3.60;66.50;;;;;;6097784;23;92400;-70
2022/03/10 03:46:30;;;;;;;16.77;10.82;;;3.60;66.30;;;;;;6123174;23;91702;-70
2022/03/10 03:48:57;;;;;;;16.35;9.90;;;3.70;66.20;;;;;;6097516;23;95828;-70
2022/03/10 03:51:24;;;;;;;15.82;10.82;;;3.70;65.90;;;;;;6097437;23;108104;-70
2022/03/10 03:53:51;;;;;;;15.00;10.52;;;3.70;65.90;;;;;;6122574;23;95262;-70
2022/03/10 03:56:18;;;;;;;16.50;10.15;;;3.80;65.70;;;;;;6122255;23;92444;-70
2022/03/10 03:58:45;;;;;;;16.83;10.07;;;3.80;65.60;;;;;;6122095;23;95763;-70
2022/03/10 04:01:12;;;;;;;15.80;10.50;;;3.80;65.30;;;;;;6123664;22;92673;-70
2022/03/10 04:03:40;;;;;;;14.48;9.68;;;3.90;65.30;;;;;;6098803;23;92907;-70
2022/03/10 04:06:07;;;;;;;12.70;9.57;;;3.80;65.10;;;;;;6125587;22;92339;-70
2022/03/10 04:08:34;;;;;;;15.20;9.73;;;3.90;65.00;;;;;;6125588;23;93228;-70
2022/03/10 04:11:01;;;;;;;13.88;10.10;;;3.90;65.10;;;;;;6126385;22;92896;-70
2022/03/10 04:13:28;;;;;;;13.00;9.45;;;3.90;65.40;;;;;;6125101;22;92381;-70
2022/03/10 04:15:55;;;;;;;14.75;9.82;;;3.90;65.40;;;;;;6126073;22;92402;-70
2022/03/10 04:18:22;;;;;;;14.10;10.13;;;3.90;64.80;;;;;;6124000;22;95506;-70
2022/03/10 04:20:49;;;;;;;17.27;9.68;;;3.90;65.00;;;;;;6125110;23;95445;-70
2022/03/10 04:23:18;;;;;;;15.20;9.98;;;3.90;65.00;;;;;;6124092;23;92514;-70
2022/03/10 04:25:45;;;;;;;16.45;9.60;;;3.90;65.00;;;;;;6125095;22;92478;-70
2022/03/10 04:28:12;;;;;;;14.88;10.15;;;3.90;65.00;;;;;;6124001;23;100957;-70
2022/03/10 04:30:44;;;;;;;14.85;9.93;;;3.90;65.00;;;;;;6122819;23;95623;-69
2022/03/10 04:33:11;;;;;;;14.48;10.27;;;3.90;65.00;;;;;;6125856;23;92459;-70
2022/03/10 04:35:38;;;;;;;14.95;10.13;;;3.90;65.00;;;;;;6125500;22;91661;-70
2022/03/10 04:38:05;;;;;;;15.05;10.23;;;3.90;65.30;;;;;;6123445;23;95904;-70
2022/03/10 04:40:33;;;;;;;13.85;10.48;;;3.80;65.20;;;;;;6123264;23;92987;-70
2022/03/10 04:42:59;;;;;;;16.17;11.98;;;3.80;65.60;;;;;;6123886;22;95359;-70
2022/03/10 04:45:26;;;;;;;16.58;11.85;;;3.80;65.60;;;;;;6098120;23;100650;-70
2022/03/10 04:47:53;;;;;;;16.55;11.52;;;3.80;65.50;;;;;;6125209;22;93308;-70
2022/03/10 04:50:20;;;;;;;17.77;12.55;;;3.80;65.50;;;;;;6123582;23;93004;-70
2022/03/10 04:52:48;;;;;;;21.40;14.13;;;3.80;65.50;;;;;;6098401;23;92480;-70
2022/03/10 04:55:15;;;;;;;19.77;13.63;;;3.70;65.50;;;;;;6124686;23;92451;-70
2022/03/10 04:57:42;;;;;;;17.60;11.80;;;3.70;65.60;;;;;;6098295;23;95891;-70
2022/03/10 05:00:11;;;;;;;16.75;11.93;;;3.70;65.90;;;;;;6074990;23;91836;-70
2022/03/10 05:02:39;;;;;;;19.48;10.73;;;3.70;66.20;;;;;;6124930;22;92467;-70
2022/03/10 05:05:08;;;;;;;16.05;11.77;;;3.70;66.10;;;;;;6125232;22;92396;-70
2022/03/10 05:07:35;;;;;;;17.20;10.65;;;3.70;66.20;;;;;;6121184;23;111291;-75
2022/03/10 05:10:03;;;;;;;17.10;10.85;;;3.60;66.20;;;;;;6125495;22;94235;-75
2022/03/10 05:12:32;;;;;;;14.52;10.50;;;3.60;66.30;;;;;;6123807;23;92403;-75
2022/03/10 05:15:01;;;;;;;15.68;9.90;;;3.60;66.50;;;;;;6123265;23;92413;-75
2022/03/10 05:17:28;;;;;;;16.73;11.48;;;3.60;66.60;;;;;;6124543;23;93081;-75
2022/03/10 05:19:55;;;;;;;15.43;11.15;;;3.60;66.60;;;;;;6123546;23;95646;-75
2022/03/10 05:22:22;;;;;;;17.33;11.50;;;3.50;66.60;;;;;;6125535;22;92358;-75
2022/03/10 05:24:49;;;;;;;17.90;11.45;;;3.50;66.50;;;;;;6125638;22;92246;-75
2022/03/10 05:27:16;;;;;;;16.10;11.10;;;3.50;66.50;;;;;;6124750;22;105119;-75
2022/03/10 05:29:43;;;;;;;16.27;10.57;;;3.50;67.20;;;;;;6123296;23;92423;-70
2022/03/10 05:32:11;;;;;;;17.60;11.32;;;3.50;67.30;;;;;;6123623;22;94793;-70
2022/03/10 05:34:39;;;;;;;14.50;11.40;;;3.50;67.50;;;;;;6122807;23;92398;-70
2022/03/10 05:37:06;;;;;;;16.05;11.40;;;3.50;67.30;;;;;;6123327;23;93548;-70
2022/03/10 05:39:33;;;;;;;18.10;11.18;;;3.50;67.50;;;;;;6124193;23;100808;-70
2022/03/10 05:42:00;;;;;;;16.73;10.75;;;3.50;67.40;;;;;;6125127;22;92769;-69
2022/03/10 05:44:27;;;;;;;15.63;10.27;;;3.50;67.40;;;;;;6123527;23;92513;-70
2022/03/10 05:46:53;;;;;;;17.73;11.20;;;3.50;67.40;;;;;;6098133;23;95832;-70
2022/03/10 05:49:20;;;;;;;19.08;10.55;;;3.50;67.60;;;;;;6123461;23;95464;-70
2022/03/10 05:51:48;;;;;;;17.13;11.90;;;3.50;67.80;;;;;;6124717;22;92770;-70
2022/03/10 05:54:14;;;;;;;21.52;12.75;;;3.50;67.90;;;;;;6124353;22;92394;-70
2022/03/10 05:56:42;;;;;;;16.52;11.48;;;3.40;67.70;;;;;;6121447;23;95450;-70
2022/03/10 05:59:08;;;;;;;16.30;10.88;;;3.50;67.70;;;;;;6124075;22;109207;-70
2022/03/10 06:01:35;;;;;;;24.35;12.18;;;3.50;67.70;;;;;;6122801;23;92929;-70
2022/03/10 06:04:03;;;;;;;18.10;12.25;;;3.50;67.80;;;;;;6124881;22;92457;-70
2022/03/10 06:06:34;;;;;;;18.80;11.88;;;3.50;67.90;;;;;;6123017;23;92365;-70
2022/03/10 06:09:01;;;;;;;18.40;11.88;;;3.60;68.10;;;;;;6098336;23;95559;-70
2022/03/10 06:11:29;;;;;;;19.42;11.45;;;3.60;68.20;;;;;;6123076;23;92519;-70
2022/03/10 06:13:56;;;;;;;18.55;11.32;;;3.60;68.00;;;;;;6125125;22;92488;-70
2022/03/10 06:16:23;;;;;;;18.35;11.73;;;3.70;68.00;;;;;;6122058;23;112096;-70
2022/03/10 06:18:52;;;;;;;17.65;11.50;;;3.70;67.90;;;;;;6122564;23;92944;-70
2022/03/10 06:21:21;;;;;;;19.73;11.93;;;3.80;67.60;;;;;;6121854;23;94852;-70
2022/03/10 06:23:49;;;;;;;20.45;12.85;;;3.80;67.20;;;;;;6124748;22;92355;-70
2022/03/10 06:26:16;;;;;;;18.05;11.95;;;3.90;67.20;;;;;;6098185;23;94151;-70
2022/03/10 06:28:42;;;;;;;19.33;13.05;;;4.10;67.10;;;;;;6122532;23;95639;-70
2022/03/10 06:31:09;;;;;;;17.25;12.75;;;4.30;66.60;;;;;;6122872;23;92493;-70
2022/03/10 06:33:36;;;;;;;23.30;11.85;;;4.60;65.90;;;;;;6096848;23;106544;-70
2022/03/10 06:36:05;;;;;;;20.30;12.07;;;4.70;65.40;;;;;;6096490;23;95846;-70
2022/03/10 06:38:32;;;;;;;19.77;12.52;;;4.90;65.00;;;;;;6096838;23;95582;-70
2022/03/10 06:40:59;;;;;;;16.35;12.20;;;5.10;64.20;;;;;;6124271;22;92398;-75
2022/03/10 06:43:26;;;;;;;20.70;12.02;;;5.20;64.30;;;;;;6098525;23;92539;-75
2022/03/10 06:45:53;;;;;;;17.67;12.35;;;5.30;63.70;;;;;;6121638;23;95795;-70
2022/03/10 06:48:20;;;;;;;17.38;11.80;;;5.40;63.30;;;;;;6123074;23;96780;-75
2022/03/10 06:50:47;;;;;;;16.00;11.10;;;5.50;62.90;;;;;;6124609;22;92373;-74
2022/03/10 06:53:15;;;;;;;17.10;11.85;;;5.50;62.80;;;;;;6123534;23;92501;-73
2022/03/10 06:55:42;;;;;;;18.63;11.43;;;5.60;62.70;;;;;;6124099;22;93123;-73
2022/03/10 06:58:09;;;;;;;15.90;11.23;;;5.60;62.40;;;;;;6124870;23;93072;-73
2022/03/10 07:00:36;;;;;;;19.52;11.65;;;5.70;62.40;;;;;;6125053;22;92251;-75
2022/03/10 07:03:04;;;;;;;19.00;15.23;;;5.70;62.70;;;;;;6123577;23;91688;-70
2022/03/10 07:05:31;;;;;;;18.02;13.50;;;5.70;62.10;;;;;;6122848;23;93340;-75
2022/03/10 07:07:58;;;;;;;16.30;14.07;;;5.90;61.90;;;;;;6123087;23;93476;-75
2022/03/10 07:10:26;;;;;;;18.77;12.45;;;6.10;61.70;;;;;;6122229;23;94724;-75
2022/03/10 07:12:54;;;;;;;15.43;12.65;;;6.30;61.10;;;;;;6123180;23;92447;-76
2022/03/10 07:15:22;;;;;;;18.83;11.57;;;6.50;60.70;;;;;;6122653;23;97966;-76
2022/03/10 07:17:51;;;;;;;15.93;12.77;;;6.70;60.60;;;;;;6124565;23;92872;-76
2022/03/10 07:20:18;;;;;;;42.83;39.83;;;6.90;59.20;;;;;;6123265;23;92417;-76
2022/03/10 07:22:46;;;;;;;18.45;14.80;;;7.10;59.40;;;;;;6123212;23;93332;-76
2022/03/10 07:25:13;;;;;;;18.02;11.90;;;7.20;58.70;;;;;;6124579;22;93208;-75
2022/03/10 07:27:40;;;;;;;16.95;13.40;;;7.30;58.30;;;;;;6124002;23;92895;-76
2022/03/10 07:30:08;;;;;;;16.30;13.02;;;7.40;58.40;;;;;;6098266;23;92510;-75
2022/03/10 07:32:35;;;;;;;19.42;13.05;;;7.40;57.70;;;;;;6124252;23;98585;-76
2022/03/10 07:35:02;;;;;;;15.95;12.75;;;7.50;57.40;;;;;;6121062;23;95747;-76
2022/03/10 07:37:29;;;;;;;18.17;12.43;;;7.60;57.50;;;;;;6098880;23;96551;-76
2022/03/10 07:39:58;;;;;;;14.88;12.15;;;7.60;57.90;;;;;;6124053;23;92653;-76
2022/03/10 07:42:25;;;;;;;14.85;12.73;;;7.70;57.10;;;;;;6096318;23;92507;-73
2022/03/10 07:44:54;;;;;;;16.30;12.68;;;7.70;57.70;;;;;;6125257;23;92356;-68
2022/03/10 07:47:21;;;;;;;15.82;13.15;;;7.60;57.60;;;;;;6098903;23;95538;-68
2022/03/10 07:49:48;;;;;;;17.42;13.48;;;7.70;57.90;;;;;;6099061;23;92733;-68
2022/03/10 07:52:15;;;;;;;17.05;12.45;;;7.70;57.80;;;;;;6124048;23;91744;-68
2022/03/10 07:54:42;;;;;;;17.88;12.90;;;7.80;57.90;;;;;;6124343;22;101230;-68
2022/03/10 07:57:09;;;;;;;15.30;12.95;;;7.90;58.20;;;;;;6098745;23;95633;-68
2022/03/10 07:59:36;;;;;;;16.98;13.40;;;8.00;57.40;;;;;;6122052;23;94929;-68
2022/03/10 08:02:04;;;;;;;16.60;14.43;;;8.20;57.00;;;;;;6125119;22;92502;-68
2022/03/10 08:04:35;;;;;;;19.30;15.07;;;8.60;56.30;;;;;;6099755;23;95694;-68
2022/03/10 08:07:02;;;;;;;19.13;17.08;;;8.90;56.40;;;;;;6123244;23;93009;-71
2022/03/10 08:09:29;;;;;;;19.17;17.25;;;9.10;54.60;;;;;;6125329;22;92393;-71
2022/03/10 08:11:56;;;;;;;20.92;19.02;;;9.60;54.40;;;;;;6125430;22;92653;-71
2022/03/10 08:14:23;;;;;;;19.60;17.70;;;10.00;53.50;;;;;;6125085;22;93155;-71
2022/03/10 08:16:50;;;;;;;19.60;17.77;;;10.40;52.60;;;;;;6123207;23;109411;-71
2022/03/10 08:19:19;;;;;;;21.75;19.65;;;10.90;51.80;;;;;;6124890;22;92392;-71
2022/03/10 08:21:47;;;;;;;19.50;17.65;;;11.30;50.10;;;;;;6123780;23;92455;-68
2022/03/10 08:24:15;;;;;;;19.25;17.60;;;11.60;48.90;;;;;;6123257;22;95635;-68
2022/03/10 08:26:43;;;;;;;19.80;18.02;;;12.00;48.10;;;;;;6124974;22;94281;-68
2022/03/10 08:29:12;;;;;;;19.85;17.70;;;12.20;47.30;;;;;;6123669;23;92881;-69
2022/03/10 08:31:39;;;;;;;16.77;12.60;;;12.30;46.80;;;;;;6123861;23;92453;-69
2022/03/10 08:34:06;;;;;;;14.35;12.63;;;12.20;47.00;;;;;;6122866;23;95921;-69
2022/03/10 08:36:34;;;;;;;15.50;13.88;;;12.20;46.50;;;;;;6124806;22;97856;-68
2022/03/10 08:39:01;;;;;;;15.98;13.93;;;12.10;46.20;;;;;;6123253;23;92527;-74
2022/03/10 08:41:28;;;;;;;40.03;26.17;;;11.70;46.80;;;;;;6124520;23;91863;-74
2022/03/10 08:43:55;;;;;;;16.00;13.75;;;11.40;48.20;;;;;;6125296;22;93285;-74
2022/03/10 08:46:22;;;;;;;15.02;13.25;;;11.10;49.50;;;;;;6125278;22;92810;-74
2022/03/10 08:48:49;;;;;;;19.05;13.15;;;10.80;49.70;;;;;;6123255;22;94871;-74
2022/03/10 08:51:15;;;;;;;14.00;12.23;;;10.60;50.80;;;;;;6123815;23;92462;-76
2022/03/10 08:53:42;;;;;;;20.73;13.77;;;10.40;51.30;;;;;;6074517;23;95666;-76
2022/03/10 08:56:09;;;;;;;18.15;13.07;;;10.20;51.80;;;;;;6122843;23;93048;-71
2022/03/10 08:58:36;;;;;;;17.10;13.23;;;10.00;52.70;;;;;;6125223;22;92350;-71
2022/03/10 09:01:03;;;;;;;16.02;12.68;;;9.90;52.80;;;;;;6124163;22;101298;-70
2022/03/10 09:03:50;;;;;;;16.88;12.45;;;9.80;53.20;;;;;;6124974;22;93220;-70
2022/03/10 09:06:17;;;;;;;17.55;12.27;;;9.60;53.70;;;;;;6123344;23;95608;-71
2022/03/10 09:08:45;;;;;;;19.38;12.77;;;9.60;53.90;;;;;;6123331;23;92364;-70
2022/03/10 09:11:12;;;;;;;14.73;12.07;;;9.50;54.60;;;;;;6122972;23;92382;-70
2022/03/10 09:13:43;;;;;;;19.50;13.05;;;9.50;54.30;;;;;;6123398;23;95719;-71
2022/03/10 09:16:10;;;;;;;17.15;12.23;;;9.50;54.40;;;;;;6124433;23;95455;-71
2022/03/10 09:18:37;;;;;;;16.45;12.05;;;9.50;54.40;;;;;;6123709;23;92774;-71
2022/03/10 09:21:05;;;;;;;14.95;11.40;;;9.50;54.80;;;;;;6123303;23;92840;-71
2022/03/10 09:23:31;;;;;;;15.32;10.82;;;9.60;54.60;;;;;;6124871;22;93084;-71
2022/03/10 09:25:59;;;;;;;17.67;11.48;;;9.60;55.40;;;;;;6124886;23;93052;-70
2022/03/10 09:28:26;;;;;;;18.40;12.65;;;9.60;54.70;;;;;;6098850;23;92369;-71
2022/03/10 09:30:52;;;;;;;21.15;11.65;;;9.70;54.50;;;;;;6125555;22;91616;-71
2022/03/10 09:33:19;;;;;;;15.65;12.10;;;9.80;54.60;;;;;;6123041;23;93109;-70
2022/03/10 09:35:47;;;;;;;16.77;13.50;;;9.80;54.70;;;;;;6124490;22;99684;-71
2022/03/10 09:38:20;;;;;;;17.33;11.57;;;9.90;54.80;;;;;;6121885;23;94743;-70
2022/03/10 09:41:06;;;;;;;14.63;11.20;;;10.00;54.30;;;;;;6122956;23;92541;-71
2022/03/10 09:43:35;;;;;;;17.35;12.48;;;10.00;53.70;;;;;;6123374;23;93336;-71
2022/03/10 09:46:02;;;;;;;15.80;12.07;;;10.10;54.00;;;;;;6123236;23;92996;-71
2022/03/10 09:48:30;;;;;;;15.25;11.73;;;10.10;53.50;;;;;;6124932;22;92318;-71
2022/03/10 09:50:57;;;;;;;16.40;11.77;;;10.20;53.50;;;;;;6123478;23;92828;-71
2022/03/10 09:53:26;;;;;;;15.57;12.18;;;10.30;53.40;;;;;;6122543;23;95647;-71
2022/03/10 09:55:54;;;;;;;14.45;11.27;;;10.40;53.00;;;;;;6124670;22;92926;-71
2022/03/10 09:58:22;;;;;;;15.80;12.30;;;10.50;52.50;;;;;;6122886;23;92498;-71
2022/03/10 10:00:49;;;;;;;15.48;11.85;;;10.60;51.70;;;;;;6124630;23;92393;-71
2022/03/10 10:03:16;;;;;;;14.13;10.57;;;10.70;51.90;;;;;;6122699;22;95524;-71
2022/03/10 10:05:43;;;;;;;14.10;10.88;;;10.90;52.20;;;;;;6122763;23;97832;-71
2022/03/10 10:08:18;;;;;;;13.70;10.55;;;10.90;51.20;;;;;;6123193;23;92454;-71
2022/03/10 10:10:46;;;;;;;13.18;11.25;;;11.10;50.60;;;;;;6125004;22;92681;-71
2022/03/10 10:13:29;;;;;;;13.55;11.73;;;11.10;49.90;;;;;;6123122;23;95889;-76
2022/03/10 10:15:59;;;;;;;15.52;10.88;;;11.30;49.60;;;;;;6125207;22;93005;-77
2022/03/10 10:18:27;;;;;;;17.48;11.20;;;11.40;49.80;;;;;;6123547;23;92796;-76
2022/03/10 10:21:10;;;;;;;17.17;11.73;;;11.40;49.40;;;;;;6125902;22;91651;-76
2022/03/10 10:23:39;;;;;;;13.82;12.20;;;11.50;48.90;;;;;;6125167;22;93079;-76
2022/03/10 10:26:12;;;;;;;14.43;12.15;;;11.50;48.30;;;;;;6123192;23;94562;-76
2022/03/10 10:28:48;;;;;;;18.15;10.23;;;11.60;48.10;;;;;;6122925;23;95206;-76
2022/03/10 10:31:25;;;;;;;14.15;10.43;;;11.60;48.50;;;;;;6124607;22;92421;-71
2022/03/10 10:34:09;;;;;;;12.85;11.13;;;11.70;48.30;;;;;;6123050;23;93454;-71
2022/03/10 10:36:37;;;;;;;15.40;11.70;;;11.80;48.50;;;;;;6124559;22;92614;-71
2022/03/10 10:39:10;;;;;;;12.65;10.02;;;11.90;47.70;;;;;;6124705;22;92396;-71
2022/03/10 10:41:42;;;;;;;16.70;12.00;;;12.00;48.70;;;;;;6124831;22;92399;-71
2022/03/10 10:44:16;;;;;;;15.45;12.05;;;12.10;47.10;;;;;;6122942;23;92973;-71
2022/03/10 10:46:50;;;;;;;15.38;11.73;;;12.20;47.30;;;;;;6123424;23;93045;-71
2022/03/10 10:49:20;;;;;;;15.90;11.57;;;12.30;47.20;;;;;;6122738;23;92394;-71
2022/03/10 10:51:53;;;;;;;12.30;10.55;;;12.40;47.00;;;;;;6124607;22;92445;-71
2022/03/10 10:54:21;;;;;;;13.23;11.18;;;12.50;47.00;;;;;;6120748;23;103189;-71
2022/03/10 10:56:50;;;;;;;14.30;11.00;;;12.70;46.20;;;;;;6097999;23;97909;-71
2022/03/10 10:59:45;;;;;;;11.45;10.25;;;12.70;45.30;;;;;;6124187;22;92299;-71
2022/03/10 11:02:22;;;;;;;12.60;11.27;;;12.90;45.60;;;;;;6124417;22;92349;-70
2022/03/10 11:04:51;;;;;;;17.20;10.38;;;13.10;45.00;;;;;;6124384;22;93259;-71
2022/03/10 11:07:21;;;;;;;13.88;11.02;;;13.10;44.60;;;;;;6122089;23;95525;-71
2022/03/10 11:09:49;;;;;;;12.73;10.60;;;13.20;43.90;;;;;;6124580;22;93110;-71
2022/03/10 11:12:18;;;;;;;13.75;11.05;;;13.40;45.00;;;;;;6122104;23;91727;-72
2022/03/10 11:14:47;;;;;;;14.75;10.50;;;13.50;44.60;;;;;;6124145;22;93399;-70
2022/03/10 11:17:16;;;;;;;17.38;12.82;;;13.60;44.10;;;;;;6124124;22;92807;-71
2022/03/10 11:19:45;;;;;;;13.77;11.27;;;13.60;43.40;;;;;;6121405;23;94871;-71
2022/03/10 11:22:57;;;;;;;13.63;11.18;;;13.70;44.40;;;;;;6124378;23;92287;-71
2022/03/10 11:25:41;;;;;;;12.70;10.85;;;13.90;44.50;;;;;;6119556;23;93101;-68
2022/03/10 11:28:22;;;;;;;13.60;11.23;;;14.00;43.80;;;;;;6097781;23;95619;-69
2022/03/10 11:30:52;;;;;;;12.75;11.35;;;14.00;42.10;;;;;;6124353;22;92325;-68
2022/03/10 11:33:19;;;;;;;15.63;11.90;;;14.10;43.20;;;;;;6122248;23;92528;-68
2022/03/10 11:35:51;;;;;;;12.82;10.95;;;14.20;43.80;;;;;;6123868;22;93095;-68
2022/03/10 11:38:19;;;;;;;14.73;10.45;;;14.30;43.10;;;;;;6122645;23;92995;-69
2022/03/10 11:40:56;;;;;;;13.93;11.27;;;14.40;42.60;;;;;;6124270;22;92785;-69
2022/03/10 11:43:35;;;;;;;16.75;12.23;;;14.40;43.00;;;;;;6122145;23;92346;-69
2022/03/10 11:46:19;;;;;;;17.30;11.18;;;14.60;43.00;;;;;;6122307;23;94837;-69
2022/03/10 11:49:25;;;;;;;13.80;11.13;;;14.60;39.80;;;;;;6123800;22;95252;-68
2022/03/10 11:51:56;;;;;;;14.10;10.55;;;14.50;39.70;;;;;;6008681;23;92499;-71
2022/03/10 11:54:28;;;;;;;15.43;11.95;;;14.50;41.80;;;;;;6109908;23;92466;-71
2022/03/10 11:57:09;;;;;;;14.85;12.10;;;14.70;40.20;;;;;;6123871;22;93132;-71
2022/03/10 11:59:37;;;;;;;17.85;13.30;;;14.80;41.40;;;;;;6097199;23;94719;-71
2022/03/10 12:02:04;;;;;;;14.65;11.88;;;14.80;40.70;;;;;;6122181;23;92532;-71
2022/03/10 12:04:36;;;;;;;14.02;11.90;;;14.90;40.10;;;;;;6096939;23;107360;-71
2022/03/10 12:07:04;;;;;;;20.35;12.45;;;15.00;40.50;;;;;;6121856;23;96229;-71
2022/03/10 12:09:33;;;;;;;18.38;13.20;;;15.10;40.00;;;;;;6123509;22;93101;-71
2022/03/10 12:12:21;;;;;;;13.27;10.95;;;15.00;38.90;;;;;;6122393;22;94804;-71
2022/03/10 12:15:30;;;;;;;14.75;12.45;;;15.10;38.70;;;;;;6122936;23;92467;-76
2022/03/10 12:17:57;;;;;;;13.70;9.63;;;15.20;39.70;;;;;;6124469;22;92845;-76
2022/03/10 12:20:38;;;;;;;15.98;12.70;;;15.20;39.10;;;;;;6098799;23;93015;-76
2022/03/10 12:23:12;;;;;;;17.17;11.98;;;15.40;39.00;;;;;;6124858;22;92306;-71
2022/03/10 12:25:53;;;;;;;16.40;12.68;;;15.30;39.20;;;;;;6098793;23;92379;-71
2022/03/10 12:28:31;;;;;;;18.08;13.25;;;15.40;38.90;;;;;;6125308;22;93119;-71
2022/03/10 12:31:12;;;;;;;15.40;12.30;;;15.40;37.90;;;;;;6125530;23;92748;-71
2022/03/10 12:33:52;;;;;;;18.13;12.80;;;15.40;39.20;;;;;;6124964;23;92333;-71
2022/03/10 12:36:34;;;;;;;16.52;11.57;;;15.40;40.20;;;;;;6123572;23;92505;-71
2022/03/10 12:39:11;;;;;;;15.45;12.75;;;15.50;39.80;;;;;;6123612;22;95509;-72
2022/03/10 12:41:45;;;;;;;14.18;10.77;;;15.60;39.90;;;;;;6123225;23;95317;-71
2022/03/10 12:44:13;;;;;;;17.40;13.07;;;15.60;38.90;;;;;;6123845;23;92548;-70
2022/03/10 12:46:42;;;;;;;15.10;12.23;;;15.70;38.70;;;;;;6098875;23;92493;-71
2022/03/10 12:49:29;;;;;;;16.58;12.80;;;15.70;38.80;;;;;;6123185;23;95893;-71
2022/03/10 12:51:57;;;;;;;18.92;14.13;;;15.90;39.10;;;;;;6125120;22;92925;-71